sensor_id;sensor_type;location;lat;lon;timestamp;temperature;humidity
34434;DHT22;34290;48.562;13.384;2023-02-03T00:02:22;0.30;99.90
34434;DHT22;34290;48.562;13.384;2023-02-03T00:04:49;0.20;99.90
34434;DHT22;34290;48.562;13.384;2023-02-03T00:09:43;0.20;99.90
34434;DHT22;34290;48.562;13.384;2023-02-03T00:12:10;0.30;99.90
34434;DHT22;34290;48.562;13.384;2023-02-03T00:14:37;0.30;99.90
34434;DHT22;34290;48.562;13.384;2023-02-03T00:19:32;0.30;99.90
34434;DHT22;34290;48.562;13.384;2023-02-03T00:21:59;0.30;99.90
34434;DHT22;34290;48.562;13.384;2023-02-03T00:24:26;0.30;99.90
34434;DHT22;34290;48.562;13.384;2023-02-03T00:26:53;0.30;99.90
34434;DHT22;34290;48.562;13.384;2023-02-03T00:29:20;0.30;99.90
34434;DHT22;34290;48.562;13.384;2023-02-03T00:31:50;0.30;99.90
34434;DHT22;34290;48.562;13.384;2023-02-03T00:34:17;0.30;99.90
34434;DHT22;34290;48.562;13.384;2023-02-03T00:36:45;0.30;99.90
34434;DHT22;34290;48.562;13.384;2023-02-03T00:41:40;0.30;99.90
34434;DHT22;34290;48.562;13.384;2023-02-03T00:44:07;0.30;99.90
34434;DHT22;34290;48.562;13.384;2023-02-03T00:46:34;0.30;99.90
34434;DHT22;34290;48.562;13.384;2023-02-03T00:51:28;0.40;99.90
34434;DHT22;34290;48.562;13.384;2023-02-03T00:53:57;0.40;99.90
34434;DHT22;34290;48.562;13.384;2023-02-03T00:56:24;0.40;99.90
34434;DHT22;34290;48.562;13.384;2023-02-03T00:58:51;0.40;99.90
34434;DHT22;34290;48.562;13.384;2023-02-03T01:01:18;0.40;99.90
34434;DHT22;34290;48.562;13.384;2023-02-03T01:06:14;0.40;99.90
34434;DHT22;34290;48.562;13.384;2023-02-03T01:08:42;0.40;99.90
34434;DHT22;34290;48.562;13.384;2023-02-03T01:11:12;0.30;99.90
34434;DHT22;34290;48.562;13.384;2023-02-03T01:13:40;0.40;99.90
34434;DHT22;34290;48.562;13.384;2023-02-03T01:16:07;0.40;99.90
34434;DHT22;34290;48.562;13.384;2023-02-03T01:18:34;0.30;99.90
34434;DHT22;34290;48.562;13.384;2023-02-03T01:21:05;0.30;99.90
34434;DHT22;34290;48.562;13.384;2023-02-03T01:23:33;0.30;99.90
34434;DHT22;34290;48.562;13.384;2023-02-03T01:26:04;0.20;99.90
34434;DHT22;34290;48.562;13.384;2023-02-03T01:28:33;0.30;99.90
34434;DHT22;34290;48.562;13.384;2023-02-03T01:31:08;0.30;99.90
34434;DHT22;34290;48.562;13.384;2023-02-03T01:33:35;0.30;99.90
34434;DHT22;34290;48.562;13.384;2023-02-03T01:36:05;0.30;99.90
34434;DHT22;34290;48.562;13.384;2023-02-03T01:40:59;0.30;99.90
34434;DHT22;34290;48.562;13.384;2023-02-03T01:43:28;0.40;99.90
34434;DHT22;34290;48.562;13.384;2023-02-03T01:45:57;0.40;99.90
34434;DHT22;34290;48.562;13.384;2023-02-03T01:48:24;0.40;99.90
34434;DHT22;34290;48.562;13.384;2023-02-03T01:50:52;0.40;99.90
34434;DHT22;34290;48.562;13.384;2023-02-03T01:55:47;0.40;99.90
34434;DHT22;34290;48.562;13.384;2023-02-03T01:58:20;0.50;99.90
34434;DHT22;34290;48.562;13.384;2023-02-03T02:03:20;0.40;99.90
34434;DHT22;34290;48.562;13.384;2023-02-03T02:05:49;0.50;99.90
34434;DHT22;34290;48.562;13.384;2023-02-03T02:08:19;0.50;99.90
34434;DHT22;34290;48.562;13.384;2023-02-03T02:10:47;0.50;99.90
34434;DHT22;34290;48.562;13.384;2023-02-03T02:13:15;0.50;99.90
34434;DHT22;34290;48.562;13.384;2023-02-03T02:15:49;0.50;99.90
34434;DHT22;34290;48.562;13.384;2023-02-03T02:18:27;0.50;99.90
34434;DHT22;34290;48.562;13.384;2023-02-03T02:21:23;0.50;99.90
34434;DHT22;34290;48.562;13.384;2023-02-03T02:24:27;0.60;99.90
34434;DHT22;34290;48.562;13.384;2023-02-03T02:27:06;0.60;99.90
34434;DHT22;34290;48.562;13.384;2023-02-03T02:32:42;0.70;99.90
34434;DHT22;34290;48.562;13.384;2023-02-03T02:35:16;0.80;99.90
34434;DHT22;34290;48.562;13.384;2023-02-03T02:37:49;0.80;99.90
34434;DHT22;34290;48.562;13.384;2023-02-03T02:40:24;0.80;99.90
34434;DHT22;34290;48.562;13.384;2023-02-03T02:43:06;0.80;99.90
34434;DHT22;34290;48.562;13.384;2023-02-03T02:45:40;0.80;99.90
34434;DHT22;34290;48.562;13.384;2023-02-03T02:48:16;0.80;99.90
34434;DHT22;34290;48.562;13.384;2023-02-03T02:50:45;0.80;99.90
34434;DHT22;34290;48.562;13.384;2023-02-03T02:53:15;0.90;99.90
34434;DHT22;34290;48.562;13.384;2023-02-03T02:55:45;0.90;99.90
34434;DHT22;34290;48.562;13.384;2023-02-03T02:58:15;0.90;99.90
34434;DHT22;34290;48.562;13.384;2023-02-03T03:00:43;0.80;99.90
34434;DHT22;34290;48.562;13.384;2023-02-03T03:03:16;0.90;99.90
34434;DHT22;34290;48.562;13.384;2023-02-03T03:05:47;0.80;99.90
34434;DHT22;34290;48.562;13.384;2023-02-03T03:08:18;0.90;99.90
34434;DHT22;34290;48.562;13.384;2023-02-03T03:10:46;0.80;99.90
34434;DHT22;34290;48.562;13.384;2023-02-03T03:13:26;0.90;99.90
34434;DHT22;34290;48.562;13.384;2023-02-03T03:15:56;0.90;99.90
34434;DHT22;34290;48.562;13.384;2023-02-03T03:18:28;0.90;99.90
34434;DHT22;34290;48.562;13.384;2023-02-03T03:20:59;1.00;99.90
34434;DHT22;34290;48.562;13.384;2023-02-03T03:23:32;1.00;99.90
34434;DHT22;34290;48.562;13.384;2023-02-03T03:26:06;1.00;99.90
34434;DHT22;34290;48.562;13.384;2023-02-03T03:28:40;1.00;99.90
34434;DHT22;34290;48.562;13.384;2023-02-03T03:31:08;1.10;99.90
34434;DHT22;34290;48.562;13.384;2023-02-03T03:33:36;1.20;99.90
34434;DHT22;34290;48.562;13.384;2023-02-03T03:36:10;1.20;99.90
34434;DHT22;34290;48.562;13.384;2023-02-03T03:38:41;1.20;99.90
34434;DHT22;34290;48.562;13.384;2023-02-03T03:41:15;1.30;99.90
34434;DHT22;34290;48.562;13.384;2023-02-03T03:43:46;1.30;99.90
34434;DHT22;34290;48.562;13.384;2023-02-03T03:46:18;1.30;99.90
34434;DHT22;34290;48.562;13.384;2023-02-03T03:48:51;1.40;99.90
34434;DHT22;34290;48.562;13.384;2023-02-03T03:51:23;1.50;99.90
34434;DHT22;34290;48.562;13.384;2023-02-03T03:53:53;1.50;99.90
34434;DHT22;34290;48.562;13.384;2023-02-03T03:56:25;1.40;99.90
34434;DHT22;34290;48.562;13.384;2023-02-03T03:58:53;1.40;99.90
34434;DHT22;34290;48.562;13.384;2023-02-03T04:01:22;1.50;99.90
34434;DHT22;34290;48.562;13.384;2023-02-03T04:03:54;1.50;99.90
34434;DHT22;34290;48.562;13.384;2023-02-03T04:06:22;1.60;99.90
34434;DHT22;34290;48.562;13.384;2023-02-03T04:08:50;1.60;99.90
34434;DHT22;34290;48.562;13.384;2023-02-03T04:11:17;1.60;99.90
34434;DHT22;34290;48.562;13.384;2023-02-03T04:16:25;1.70;99.90
34434;DHT22;34290;48.562;13.384;2023-02-03T04:18:53;1.60;99.90
34434;DHT22;34290;48.562;13.384;2023-02-03T04:21:20;1.80;99.90
34434;DHT22;34290;48.562;13.384;2023-02-03T04:23:47;1.80;99.90
34434;DHT22;34290;48.562;13.384;2023-02-03T04:26:15;1.90;99.90
34434;DHT22;34290;48.562;13.384;2023-02-03T04:31:10;2.00;99.90
34434;DHT22;34290;48.562;13.384;2023-02-03T04:33:37;1.90;99.90
34434;DHT22;34290;48.562;13.384;2023-02-03T04:36:06;1.90;99.90
34434;DHT22;34290;48.562;13.384;2023-02-03T04:41:00;2.00;99.90
34434;DHT22;34290;48.562;13.384;2023-02-03T04:45:54;2.10;99.90
34434;DHT22;34290;48.562;13.384;2023-02-03T04:48:21;2.10;99.90
34434;DHT22;34290;48.562;13.384;2023-02-03T04:50:48;2.10;99.90
34434;DHT22;34290;48.562;13.384;2023-02-03T04:53:16;2.20;99.90
34434;DHT22;34290;48.562;13.384;2023-02-03T04:55:45;2.20;99.90
34434;DHT22;34290;48.562;13.384;2023-02-03T04:58:12;2.10;99.90
34434;DHT22;34290;48.562;13.384;2023-02-03T05:03:07;2.20;99.90
34434;DHT22;34290;48.562;13.384;2023-02-03T05:05:34;2.10;99.90
34434;DHT22;34290;48.562;13.384;2023-02-03T05:08:00;2.10;99.90
34434;DHT22;34290;48.562;13.384;2023-02-03T05:10:29;2.10;99.90
34434;DHT22;34290;48.562;13.384;2023-02-03T05:12:56;2.10;99.90
34434;DHT22;34290;48.562;13.384;2023-02-03T05:15:23;2.10;99.90
34434;DHT22;34290;48.562;13.384;2023-02-03T05:17:51;2.00;99.90
34434;DHT22;34290;48.562;13.384;2023-02-03T05:22:45;2.10;99.90
34434;DHT22;34290;48.562;13.384;2023-02-03T05:27:41;2.30;99.90
34434;DHT22;34290;48.562;13.384;2023-02-03T05:30:09;2.30;99.90
34434;DHT22;34290;48.562;13.384;2023-02-03T05:32:36;2.40;99.90
34434;DHT22;34290;48.562;13.384;2023-02-03T05:35:04;2.40;99.90
34434;DHT22;34290;48.562;13.384;2023-02-03T05:37:31;2.40;99.90
34434;DHT22;34290;48.562;13.384;2023-02-03T05:42:46;2.40;99.90
34434;DHT22;34290;48.562;13.384;2023-02-03T05:45:12;2.40;99.90
34434;DHT22;34290;48.562;13.384;2023-02-03T05:47:39;2.50;99.90
34434;DHT22;34290;48.562;13.384;2023-02-03T05:50:07;2.50;99.90
34434;DHT22;34290;48.562;13.384;2023-02-03T05:55:01;2.50;99.90
34434;DHT22;34290;48.562;13.384;2023-02-03T05:57:28;2.70;99.90
34434;DHT22;34290;48.562;13.384;2023-02-03T05:59:56;2.70;99.90
34434;DHT22;34290;48.562;13.384;2023-02-03T06:02:23;2.70;99.90
34434;DHT22;34290;48.562;13.384;2023-02-03T06:04:50;2.70;99.90
34434;DHT22;34290;48.562;13.384;2023-02-03T06:07:17;2.70;99.90
34434;DHT22;34290;48.562;13.384;2023-02-03T06:09:44;2.70;99.90
34434;DHT22;34290;48.562;13.384;2023-02-03T06:14:38;2.70;99.90
34434;DHT22;34290;48.562;13.384;2023-02-03T06:17:06;2.80;99.90
34434;DHT22;34290;48.562;13.384;2023-02-03T06:19:33;2.80;99.90
34434;DHT22;34290;48.562;13.384;2023-02-03T06:22:00;2.80;99.90
34434;DHT22;34290;48.562;13.384;2023-02-03T06:24:27;2.80;99.90
34434;DHT22;34290;48.562;13.384;2023-02-03T06:26:54;2.80;99.90
34434;DHT22;34290;48.562;13.384;2023-02-03T06:29:21;2.80;99.90
34434;DHT22;34290;48.562;13.384;2023-02-03T06:34:16;2.80;99.90
34434;DHT22;34290;48.562;13.384;2023-02-03T06:36:43;2.80;99.90
34434;DHT22;34290;48.562;13.384;2023-02-03T06:39:10;2.90;99.90
34434;DHT22;34290;48.562;13.384;2023-02-03T06:41:37;2.90;99.90
34434;DHT22;34290;48.562;13.384;2023-02-03T06:44:04;2.80;99.90
34434;DHT22;34290;48.562;13.384;2023-02-03T06:46:31;2.90;99.90
34434;DHT22;34290;48.562;13.384;2023-02-03T06:49:02;3.20;99.90
34434;DHT22;34290;48.562;13.384;2023-02-03T06:51:31;2.90;99.90
34434;DHT22;34290;48.562;13.384;2023-02-03T06:53:57;2.90;99.90
34434;DHT22;34290;48.562;13.384;2023-02-03T06:56:24;2.90;99.90
34434;DHT22;34290;48.562;13.384;2023-02-03T06:58:51;2.90;99.90
34434;DHT22;34290;48.562;13.384;2023-02-03T07:01:18;2.90;99.90
34434;DHT22;34290;48.562;13.384;2023-02-03T07:03:45;3.00;99.90
34434;DHT22;34290;48.562;13.384;2023-02-03T07:06:13;3.00;99.90
34434;DHT22;34290;48.562;13.384;2023-02-03T07:08:41;3.00;99.90
34434;DHT22;34290;48.562;13.384;2023-02-03T07:13:35;3.00;99.90
34434;DHT22;34290;48.562;13.384;2023-02-03T07:16:03;2.90;99.90
34434;DHT22;34290;48.562;13.384;2023-02-03T07:25:53;3.00;99.90
34434;DHT22;34290;48.562;13.384;2023-02-03T07:28:19;3.10;99.90
34434;DHT22;34290;48.562;13.384;2023-02-03T07:30:47;3.10;99.90
34434;DHT22;34290;48.562;13.384;2023-02-03T07:33:14;3.10;99.90
34434;DHT22;34290;48.562;13.384;2023-02-03T07:35:41;3.10;99.90
34434;DHT22;34290;48.562;13.384;2023-02-03T07:40:36;3.20;99.90
34434;DHT22;34290;48.562;13.384;2023-02-03T07:43:05;3.30;99.90
34434;DHT22;34290;48.562;13.384;2023-02-03T07:47:59;3.30;99.90
34434;DHT22;34290;48.562;13.384;2023-02-03T07:55:20;3.30;99.90
34434;DHT22;34290;48.562;13.384;2023-02-03T07:57:47;3.30;99.90
34434;DHT22;34290;48.562;13.384;2023-02-03T08:00:17;3.40;99.90
34434;DHT22;34290;48.562;13.384;2023-02-03T08:02:44;3.30;99.90
34434;DHT22;34290;48.562;13.384;2023-02-03T08:05:12;3.40;99.90
34434;DHT22;34290;48.562;13.384;2023-02-03T08:07:39;3.50;99.90
34434;DHT22;34290;48.562;13.384;2023-02-03T08:10:07;3.40;99.90
34434;DHT22;34290;48.562;13.384;2023-02-03T08:15:02;3.40;99.90
34434;DHT22;34290;48.562;13.384;2023-02-03T08:17:31;3.40;99.90
34434;DHT22;34290;48.562;13.384;2023-02-03T08:19:59;3.40;99.90
34434;DHT22;34290;48.562;13.384;2023-02-03T08:22:26;3.40;99.90
34434;DHT22;34290;48.562;13.384;2023-02-03T08:24:53;3.40;99.90
34434;DHT22;34290;48.562;13.384;2023-02-03T08:27:21;3.40;99.90
34434;DHT22;34290;48.562;13.384;2023-02-03T08:29:48;3.50;99.90
34434;DHT22;34290;48.562;13.384;2023-02-03T08:32:17;3.50;99.90
34434;DHT22;34290;48.562;13.384;2023-02-03T08:34:46;3.50;99.90
34434;DHT22;34290;48.562;13.384;2023-02-03T08:37:15;3.50;99.90
34434;DHT22;34290;48.562;13.384;2023-02-03T08:42:10;3.60;99.90
34434;DHT22;34290;48.562;13.384;2023-02-03T08:44:37;3.60;99.90
34434;DHT22;34290;48.562;13.384;2023-02-03T08:47:05;3.70;99.90
34434;DHT22;34290;48.562;13.384;2023-02-03T08:49:33;3.70;99.90
34434;DHT22;34290;48.562;13.384;2023-02-03T08:52:06;3.70;99.90
34434;DHT22;34290;48.562;13.384;2023-02-03T08:54:33;3.70;99.90
34434;DHT22;34290;48.562;13.384;2023-02-03T08:59:28;3.80;99.90
34434;DHT22;34290;48.562;13.384;2023-02-03T09:01:55;3.80;99.90
34434;DHT22;34290;48.562;13.384;2023-02-03T09:04:24;3.90;99.90
34434;DHT22;34290;48.562;13.384;2023-02-03T09:06:52;3.90;99.90
34434;DHT22;34290;48.562;13.384;2023-02-03T09:09:21;3.90;99.90
34434;DHT22;34290;48.562;13.384;2023-02-03T09:11:48;3.90;99.90
34434;DHT22;34290;48.562;13.384;2023-02-03T09:14:15;3.90;99.90
34434;DHT22;34290;48.562;13.384;2023-02-03T09:19:09;3.90;99.90
34434;DHT22;34290;48.562;13.384;2023-02-03T09:26:37;4.00;99.90
34434;DHT22;34290;48.562;13.384;2023-02-03T09:29:04;4.10;99.90
34434;DHT22;34290;48.562;13.384;2023-02-03T09:31:31;4.10;99.90
34434;DHT22;34290;48.562;13.384;2023-02-03T09:36:26;4.10;99.90
34434;DHT22;34290;48.562;13.384;2023-02-03T09:38:53;4.20;99.90
34434;DHT22;34290;48.562;13.384;2023-02-03T09:41:30;4.20;99.90
34434;DHT22;34290;48.562;13.384;2023-02-03T09:44:07;4.20;99.90
34434;DHT22;34290;48.562;13.384;2023-02-03T09:46:41;4.20;99.90
34434;DHT22;34290;48.562;13.384;2023-02-03T09:49:15;4.30;99.90
34434;DHT22;34290;48.562;13.384;2023-02-03T09:51:46;4.40;99.90
34434;DHT22;34290;48.562;13.384;2023-02-03T09:54:18;4.40;99.90
34434;DHT22;34290;48.562;13.384;2023-02-03T09:56:46;4.50;99.90
34434;DHT22;34290;48.562;13.384;2023-02-03T09:59:18;4.40;99.90
34434;DHT22;34290;48.562;13.384;2023-02-03T10:01:51;4.40;99.90
34434;DHT22;34290;48.562;13.384;2023-02-03T10:04:27;4.50;99.90
34434;DHT22;34290;48.562;13.384;2023-02-03T10:07:04;4.60;99.90
34434;DHT22;34290;48.562;13.384;2023-02-03T10:09:45;4.70;99.90
34434;DHT22;34290;48.562;13.384;2023-02-03T10:12:39;4.70;99.90
34434;DHT22;34290;48.562;13.384;2023-02-03T10:15:26;4.70;99.90
34434;DHT22;34290;48.562;13.384;2023-02-03T10:18:02;4.70;99.90
34434;DHT22;34290;48.562;13.384;2023-02-03T10:20:34;4.70;99.90
34434;DHT22;34290;48.562;13.384;2023-02-03T10:23:09;4.80;99.90
34434;DHT22;34290;48.562;13.384;2023-02-03T10:25:40;4.80;99.90
34434;DHT22;34290;48.562;13.384;2023-02-03T10:28:14;4.70;99.90
34434;DHT22;34290;48.562;13.384;2023-02-03T10:30:47;4.80;99.90
34434;DHT22;34290;48.562;13.384;2023-02-03T10:33:16;4.80;99.90
34434;DHT22;34290;48.562;13.384;2023-02-03T10:35:49;4.80;99.90
34434;DHT22;34290;48.562;13.384;2023-02-03T10:38:24;4.80;99.90
34434;DHT22;34290;48.562;13.384;2023-02-03T10:43:19;4.80;99.90
34434;DHT22;34290;48.562;13.384;2023-02-03T10:46:05;4.80;99.90
34434;DHT22;34290;48.562;13.384;2023-02-03T10:48:32;4.70;99.90
34434;DHT22;34290;48.562;13.384;2023-02-03T10:51:01;4.70;99.90
34434;DHT22;34290;48.562;13.384;2023-02-03T10:53:33;4.60;99.90
34434;DHT22;34290;48.562;13.384;2023-02-03T10:56:03;4.60;99.90
34434;DHT22;34290;48.562;13.384;2023-02-03T10:58:32;4.60;99.90
34434;DHT22;34290;48.562;13.384;2023-02-03T11:01:09;4.50;99.90
34434;DHT22;34290;48.562;13.384;2023-02-03T11:03:37;4.50;99.90
34434;DHT22;34290;48.562;13.384;2023-02-03T11:06:09;4.50;99.90
34434;DHT22;34290;48.562;13.384;2023-02-03T11:08:37;4.50;99.90
34434;DHT22;34290;48.562;13.384;2023-02-03T11:11:07;4.50;99.90
34434;DHT22;34290;48.562;13.384;2023-02-03T11:13:34;4.50;99.90
34434;DHT22;34290;48.562;13.384;2023-02-03T11:16:03;4.50;99.90
34434;DHT22;34290;48.562;13.384;2023-02-03T11:18:41;4.50;99.90
34434;DHT22;34290;48.562;13.384;2023-02-03T11:21:12;4.50;99.90
34434;DHT22;34290;48.562;13.384;2023-02-03T11:24:01;4.50;99.90
34434;DHT22;34290;48.562;13.384;2023-02-03T11:26:31;4.40;99.90
34434;DHT22;34290;48.562;13.384;2023-02-03T11:29:00;4.40;99.90
34434;DHT22;34290;48.562;13.384;2023-02-03T11:31:30;4.40;99.90
34434;DHT22;34290;48.562;13.384;2023-02-03T11:34:02;4.50;99.90
34434;DHT22;34290;48.562;13.384;2023-02-03T11:36:32;4.50;99.90
34434;DHT22;34290;48.562;13.384;2023-02-03T11:41:50;4.40;99.90
34434;DHT22;34290;48.562;13.384;2023-02-03T11:44:20;4.50;99.90
34434;DHT22;34290;48.562;13.384;2023-02-03T11:46:49;4.50;99.90
34434;DHT22;34290;48.562;13.384;2023-02-03T11:55:45;4.60;99.90
34434;DHT22;34290;48.562;13.384;2023-02-03T12:01:38;4.60;99.90
34434;DHT22;34290;48.562;13.384;2023-02-03T12:04:20;4.60;99.90
34434;DHT22;34290;48.562;13.384;2023-02-03T12:07:13;4.60;99.90
34434;DHT22;34290;48.562;13.384;2023-02-03T12:09:54;4.60;99.90
34434;DHT22;34290;48.562;13.384;2023-02-03T12:12:34;4.70;99.90
34434;DHT22;34290;48.562;13.384;2023-02-03T12:15:23;4.70;99.90
34434;DHT22;34290;48.562;13.384;2023-02-03T12:18:15;4.80;99.90
34434;DHT22;34290;48.562;13.384;2023-02-03T12:20:57;4.80;99.90
34434;DHT22;34290;48.562;13.384;2023-02-03T12:23:36;4.80;99.90
34434;DHT22;34290;48.562;13.384;2023-02-03T12:26:17;4.80;99.90
34434;DHT22;34290;48.562;13.384;2023-02-03T12:28:57;4.90;99.90
34434;DHT22;34290;48.562;13.384;2023-02-03T12:31:33;4.90;99.90
34434;DHT22;34290;48.562;13.384;2023-02-03T12:34:08;4.80;99.90
34434;DHT22;34290;48.562;13.384;2023-02-03T12:36:40;4.70;99.90
34434;DHT22;34290;48.562;13.384;2023-02-03T12:39:17;4.80;99.90
34434;DHT22;34290;48.562;13.384;2023-02-03T12:41:49;4.80;99.90
34434;DHT22;34290;48.562;13.384;2023-02-03T12:44:21;4.80;99.90
34434;DHT22;34290;48.562;13.384;2023-02-03T12:46:54;4.80;99.90
34434;DHT22;34290;48.562;13.384;2023-02-03T12:49:30;4.90;99.90
34434;DHT22;34290;48.562;13.384;2023-02-03T12:52:02;4.90;99.90
34434;DHT22;34290;48.562;13.384;2023-02-03T12:54:39;5.00;99.90
34434;DHT22;34290;48.562;13.384;2023-02-03T12:57:20;5.10;99.90
34434;DHT22;34290;48.562;13.384;2023-02-03T12:59:58;5.00;99.90
34434;DHT22;34290;48.562;13.384;2023-02-03T13:02:29;5.10;99.90
34434;DHT22;34290;48.562;13.384;2023-02-03T13:05:02;5.00;99.90
34434;DHT22;34290;48.562;13.384;2023-02-03T13:07:36;5.00;99.90
34434;DHT22;34290;48.562;13.384;2023-02-03T13:10:13;5.00;99.90
34434;DHT22;34290;48.562;13.384;2023-02-03T13:12:45;5.00;99.90
34434;DHT22;34290;48.562;13.384;2023-02-03T13:15:21;5.00;99.90
34434;DHT22;34290;48.562;13.384;2023-02-03T13:17:54;5.00;99.90
34434;DHT22;34290;48.562;13.384;2023-02-03T13:20:24;5.00;99.90
34434;DHT22;34290;48.562;13.384;2023-02-03T13:22:53;5.00;99.90
34434;DHT22;34290;48.562;13.384;2023-02-03T13:25:23;5.00;99.90
34434;DHT22;34290;48.562;13.384;2023-02-03T13:28:00;4.90;99.90
34434;DHT22;34290;48.562;13.384;2023-02-03T13:30:42;4.90;99.90
34434;DHT22;34290;48.562;13.384;2023-02-03T13:33:41;4.80;99.90
34434;DHT22;34290;48.562;13.384;2023-02-03T13:36:40;4.80;99.90
34434;DHT22;34290;48.562;13.384;2023-02-03T13:39:32;4.70;99.90
34434;DHT22;34290;48.562;13.384;2023-02-03T13:42:17;4.80;99.90
34434;DHT22;34290;48.562;13.384;2023-02-03T13:44:48;4.70;99.90
34434;DHT22;34290;48.562;13.384;2023-02-03T13:47:20;4.80;99.90
34434;DHT22;34290;48.562;13.384;2023-02-03T13:49:52;4.70;99.90
34434;DHT22;34290;48.562;13.384;2023-02-03T13:54:51;4.70;99.90
34434;DHT22;34290;48.562;13.384;2023-02-03T13:57:20;4.80;99.90
34434;DHT22;34290;48.562;13.384;2023-02-03T13:59:48;4.80;99.90
34434;DHT22;34290;48.562;13.384;2023-02-03T14:02:42;4.80;99.90
34434;DHT22;34290;48.562;13.384;2023-02-03T14:05:43;4.90;99.90
34434;DHT22;34290;48.562;13.384;2023-02-03T14:11:40;5.00;99.90
34434;DHT22;34290;48.562;13.384;2023-02-03T14:14:54;5.00;99.90
34434;DHT22;34290;48.562;13.384;2023-02-03T14:20:47;5.10;99.90
34434;DHT22;34290;48.562;13.384;2023-02-03T14:23:19;5.10;99.90
34434;DHT22;34290;48.562;13.384;2023-02-03T14:25:50;5.20;99.90
34434;DHT22;34290;48.562;13.384;2023-02-03T14:28:20;6.10;99.90
34434;DHT22;34290;48.562;13.384;2023-02-03T14:31:05;5.20;99.90
34434;DHT22;34290;48.562;13.384;2023-02-03T14:34:08;5.30;99.90
34434;DHT22;34290;48.562;13.384;2023-02-03T14:36:57;5.30;99.90
34434;DHT22;34290;48.562;13.384;2023-02-03T14:40:18;5.30;99.90
34434;DHT22;34290;48.562;13.384;2023-02-03T14:43:23;5.30;99.90
34434;DHT22;34290;48.562;13.384;2023-02-03T14:46:18;5.30;99.90
34434;DHT22;34290;48.562;13.384;2023-02-03T14:48:53;5.20;99.90
34434;DHT22;34290;48.562;13.384;2023-02-03T14:51:31;5.20;99.90
34434;DHT22;34290;48.562;13.384;2023-02-03T14:54:20;5.20;99.90
34434;DHT22;34290;48.562;13.384;2023-02-03T14:57:01;5.30;99.90
34434;DHT22;34290;48.562;13.384;2023-02-03T14:59:45;5.30;99.90
34434;DHT22;34290;48.562;13.384;2023-02-03T15:02:16;5.30;99.90
34434;DHT22;34290;48.562;13.384;2023-02-03T15:04:44;5.30;99.90
34434;DHT22;34290;48.562;13.384;2023-02-03T15:07:35;5.30;99.90
34434;DHT22;34290;48.562;13.384;2023-02-03T15:10:12;5.30;99.90
34434;DHT22;34290;48.562;13.384;2023-02-03T15:12:44;5.20;99.90
34434;DHT22;34290;48.562;13.384;2023-02-03T15:15:13;5.20;99.90
34434;DHT22;34290;48.562;13.384;2023-02-03T15:17:40;5.20;99.90
34434;DHT22;34290;48.562;13.384;2023-02-03T15:20:32;5.20;99.90
34434;DHT22;34290;48.562;13.384;2023-02-03T15:23:00;5.20;99.90
34434;DHT22;34290;48.562;13.384;2023-02-03T15:25:30;5.10;99.90
34434;DHT22;34290;48.562;13.384;2023-02-03T15:28:12;5.00;99.90
34434;DHT22;34290;48.562;13.384;2023-02-03T15:30:41;5.00;99.90
34434;DHT22;34290;48.562;13.384;2023-02-03T15:33:13;4.30;99.90
34434;DHT22;34290;48.562;13.384;2023-02-03T15:35:42;4.90;99.90
34434;DHT22;34290;48.562;13.384;2023-02-03T15:38:14;4.80;99.90
34434;DHT22;34290;48.562;13.384;2023-02-03T15:40:44;4.80;99.90
34434;DHT22;34290;48.562;13.384;2023-02-03T15:43:15;4.70;99.90
34434;DHT22;34290;48.562;13.384;2023-02-03T15:45:54;4.70;99.90
34434;DHT22;34290;48.562;13.384;2023-02-03T15:48:28;4.60;99.90
34434;DHT22;34290;48.562;13.384;2023-02-03T15:51:01;4.60;99.90
34434;DHT22;34290;48.562;13.384;2023-02-03T15:53:32;4.60;99.90
34434;DHT22;34290;48.562;13.384;2023-02-03T15:56:03;4.50;99.90
34434;DHT22;34290;48.562;13.384;2023-02-03T15:58:37;4.40;99.90
34434;DHT22;34290;48.562;13.384;2023-02-03T16:01:09;4.50;99.90
34434;DHT22;34290;48.562;13.384;2023-02-03T16:03:43;4.40;99.90
34434;DHT22;34290;48.562;13.384;2023-02-03T16:06:16;4.30;99.90
34434;DHT22;34290;48.562;13.384;2023-02-03T16:08:44;4.30;99.90
34434;DHT22;34290;48.562;13.384;2023-02-03T16:11:30;4.30;99.90
34434;DHT22;34290;48.562;13.384;2023-02-03T16:13:59;4.30;99.90
34434;DHT22;34290;48.562;13.384;2023-02-03T16:16:34;4.30;99.90
34434;DHT22;34290;48.562;13.384;2023-02-03T16:19:03;4.30;99.90
34434;DHT22;34290;48.562;13.384;2023-02-03T16:21:34;4.40;99.90
34434;DHT22;34290;48.562;13.384;2023-02-03T16:24:02;4.40;99.90
34434;DHT22;34290;48.562;13.384;2023-02-03T16:26:31;4.40;99.90
34434;DHT22;34290;48.562;13.384;2023-02-03T16:29:13;4.50;99.90
34434;DHT22;34290;48.562;13.384;2023-02-03T16:31:58;4.40;99.90
34434;DHT22;34290;48.562;13.384;2023-02-03T16:34:43;4.50;99.90
34434;DHT22;34290;48.562;13.384;2023-02-03T16:37:28;4.50;99.90
34434;DHT22;34290;48.562;13.384;2023-02-03T16:40:17;4.50;99.90
34434;DHT22;34290;48.562;13.384;2023-02-03T16:43:03;4.50;99.90
34434;DHT22;34290;48.562;13.384;2023-02-03T16:45:52;4.50;99.90
34434;DHT22;34290;48.562;13.384;2023-02-03T16:48:38;4.60;99.90
34434;DHT22;34290;48.562;13.384;2023-02-03T16:51:22;4.60;99.90
34434;DHT22;34290;48.562;13.384;2023-02-03T16:56:16;4.70;99.90
34434;DHT22;34290;48.562;13.384;2023-02-03T16:58:45;4.80;99.90
34434;DHT22;34290;48.562;13.384;2023-02-03T17:03:39;4.70;99.90
34434;DHT22;34290;48.562;13.384;2023-02-03T17:06:08;4.70;99.90
34434;DHT22;34290;48.562;13.384;2023-02-03T17:08:36;4.70;99.90
34434;DHT22;34290;48.562;13.384;2023-02-03T17:11:05;4.80;99.90
34434;DHT22;34290;48.562;13.384;2023-02-03T17:16:05;4.80;99.90
34434;DHT22;34290;48.562;13.384;2023-02-03T17:18:33;4.80;99.90
34434;DHT22;34290;48.562;13.384;2023-02-03T17:21:03;4.80;99.90
34434;DHT22;34290;48.562;13.384;2023-02-03T17:23:30;4.70;99.90
34434;DHT22;34290;48.562;13.384;2023-02-03T17:28:25;4.60;99.90
34434;DHT22;34290;48.562;13.384;2023-02-03T17:30:56;4.60;99.90
34434;DHT22;34290;48.562;13.384;2023-02-03T17:33:24;4.60;99.90
34434;DHT22;34290;48.562;13.384;2023-02-03T17:36:00;4.50;99.90
34434;DHT22;34290;48.562;13.384;2023-02-03T17:38:27;4.50;99.90
34434;DHT22;34290;48.562;13.384;2023-02-03T17:40:54;4.40;99.90
34434;DHT22;34290;48.562;13.384;2023-02-03T17:43:21;4.40;99.90
34434;DHT22;34290;48.562;13.384;2023-02-03T17:45:48;4.40;99.90
34434;DHT22;34290;48.562;13.384;2023-02-03T17:48:15;4.30;99.90
34434;DHT22;34290;48.562;13.384;2023-02-03T17:50:43;4.30;99.90
34434;DHT22;34290;48.562;13.384;2023-02-03T17:53:10;4.30;99.90
34434;DHT22;34290;48.562;13.384;2023-02-03T17:55:37;4.30;99.90
34434;DHT22;34290;48.562;13.384;2023-02-03T18:02:59;4.30;99.90
34434;DHT22;34290;48.562;13.384;2023-02-03T18:05:26;4.30;99.90
34434;DHT22;34290;48.562;13.384;2023-02-03T18:07:55;4.30;99.90